ANA793 RJTT-RJFO
Flight info
| Callsign | ANA793 |
|---|---|
| Flight time | 1h 22m |
| Altitude | 34000 |
| Route | NINOX Y28 MARCO Y45 YANAI BAIEN TFE |
| Aircraft | A21N/M-SDE3FGHIRWY/LB1 |
Departure
| Time | 2026-04-30 09:46 |
|---|---|
| Airport | Tokyo Haneda International Airport (RJTT) |
Arrival
| Time | 2026-04-30 11:08 |
|---|---|
| Airport | Oita Airport (RJFO) |
| Time | Latitude | Longitude | Altitude | Speed | Heading |
|---|---|---|---|---|---|
| 2026-04-30 09:16 | 35.55814 | 139.78447 | 28 ft | 0 kts | 240° |
| 2026-04-30 09:32 | 35.55818 | 139.78455 | 28 ft | 2 kts | 240° |
| 2026-04-30 09:32 | 35.55825 | 139.78470 | 28 ft | 2 kts | 240° |
| 2026-04-30 09:32 | 35.55833 | 139.78487 | 28 ft | 2 kts | 240° |
| 2026-04-30 09:33 | 35.55838 | 139.78497 | 28 ft | 2 kts | 240° |
| 2026-04-30 09:33 | 35.55844 | 139.78520 | 28 ft | 2 kts | 266° |
| 2026-04-30 09:33 | 35.55843 | 139.78538 | 28 ft | 2 kts | 283° |
| 2026-04-30 09:33 | 35.55838 | 139.78557 | 28 ft | 2 kts | 299° |
| 2026-04-30 09:34 | 35.55830 | 139.78571 | 28 ft | 2 kts | 315° |
| 2026-04-30 09:34 | 35.55818 | 139.78583 | 28 ft | 2 kts | 332° |
| 2026-04-30 09:34 | 35.55805 | 139.78590 | 28 ft | 1 kts | 330° |
| 2026-04-30 09:34 | 35.55803 | 139.78592 | 28 ft | 0 kts | 329° |
| 2026-04-30 09:36 | 35.55810 | 139.78587 | 28 ft | 4 kts | 331° |
| 2026-04-30 09:36 | 35.55854 | 139.78557 | 28 ft | 10 kts | 330° |
| 2026-04-30 09:37 | 35.55935 | 139.78499 | 28 ft | 16 kts | 330° |
| 2026-04-30 09:37 | 35.56021 | 139.78546 | 28 ft | 15 kts | 61° |
| 2026-04-30 09:37 | 35.56042 | 139.78654 | 28 ft | 12 kts | 126° |
| 2026-04-30 09:37 | 35.55962 | 139.78717 | 28 ft | 15 kts | 150° |
| 2026-04-30 09:38 | 35.55893 | 139.78766 | 28 ft | 19 kts | 150° |
| 2026-04-30 09:38 | 35.55703 | 139.78900 | 28 ft | 26 kts | 150° |
| 2026-04-30 09:38 | 35.55529 | 139.79024 | 28 ft | 30 kts | 150° |
| 2026-04-30 09:38 | 35.55333 | 139.79163 | 28 ft | 32 kts | 150° |
| 2026-04-30 09:39 | 35.55142 | 139.79300 | 28 ft | 30 kts | 150° |
| 2026-04-30 09:39 | 35.54962 | 139.79427 | 28 ft | 28 kts | 149° |
| 2026-04-30 09:39 | 35.54793 | 139.79547 | 28 ft | 28 kts | 150° |
| 2026-04-30 09:39 | 35.54612 | 139.79675 | 28 ft | 30 kts | 150° |
| 2026-04-30 09:40 | 35.54420 | 139.79811 | 28 ft | 32 kts | 150° |
| 2026-04-30 09:40 | 35.54218 | 139.79954 | 28 ft | 32 kts | 150° |
| 2026-04-30 09:40 | 35.54027 | 139.80089 | 28 ft | 30 kts | 150° |
| 2026-04-30 09:40 | 35.53889 | 139.80190 | 28 ft | 14 kts | 149° |
| 2026-04-30 09:41 | 35.53795 | 139.80176 | 28 ft | 14 kts | 181° |
| 2026-04-30 09:41 | 35.53703 | 139.80186 | 28 ft | 13 kts | 173° |
| 2026-04-30 09:41 | 35.53616 | 139.80215 | 28 ft | 11 kts | 149° |
| 2026-04-30 09:41 | 35.53537 | 139.80272 | 28 ft | 16 kts | 150° |
| 2026-04-30 09:42 | 35.53415 | 139.80357 | 28 ft | 23 kts | 150° |
| 2026-04-30 09:42 | 35.53252 | 139.80470 | 28 ft | 29 kts | 150° |
| 2026-04-30 09:42 | 35.53087 | 139.80585 | 28 ft | 16 kts | 150° |
| 2026-04-30 09:42 | 35.53004 | 139.80574 | 28 ft | 13 kts | 222° |
| 2026-04-30 09:43 | 35.52930 | 139.80492 | 28 ft | 17 kts | 223° |
| 2026-04-30 09:43 | 35.52825 | 139.80374 | 28 ft | 22 kts | 223° |
| 2026-04-30 09:43 | 35.52707 | 139.80241 | 28 ft | 22 kts | 223° |
| 2026-04-30 09:43 | 35.52616 | 139.80141 | 28 ft | 11 kts | 213° |
| 2026-04-30 09:44 | 35.52543 | 139.80165 | 28 ft | 12 kts | 133° |
| 2026-04-30 09:44 | 35.52484 | 139.80244 | 28 ft | 12 kts | 133° |
| 2026-04-30 09:44 | 35.52423 | 139.80327 | 28 ft | 8 kts | 130° |
| 2026-04-30 09:44 | 35.52427 | 139.80379 | 28 ft | 5 kts | 47° |
| 2026-04-30 09:45 | 35.52436 | 139.80388 | 28 ft | 2 kts | 42° |
| 2026-04-30 09:45 | 35.52577 | 139.80547 | 28 ft | 63 kts | 42° |
| 2026-04-30 09:45 | 35.53086 | 139.81117 | 29 ft | 129 kts | 43° |
| 2026-04-30 09:45 | 35.53871 | 139.81999 | 186 ft | 165 kts | 42° |
| 2026-04-30 09:46 | 35.54721 | 139.82953 | 824 ft | 167 kts | 43° |
| 2026-04-30 09:46 | 35.55577 | 139.83913 | 1615 ft | 163 kts | 45° |
| 2026-04-30 09:46 | 35.56281 | 139.84963 | 2106 ft | 164 kts | 72° |
| 2026-04-30 09:46 | 35.56296 | 139.86392 | 2415 ft | 177 kts | 106° |
| 2026-04-30 09:47 | 35.55881 | 139.87927 | 2769 ft | 193 kts | 108° |
| 2026-04-30 09:47 | 35.55465 | 139.89586 | 3073 ft | 213 kts | 107° |
| 2026-04-30 09:47 | 35.55010 | 139.91452 | 3428 ft | 233 kts | 108° |
| 2026-04-30 09:47 | 35.54292 | 139.93265 | 3897 ft | 247 kts | 130° |
| 2026-04-30 09:48 | 35.52891 | 139.94536 | 4638 ft | 253 kts | 156° |
| 2026-04-30 09:48 | 35.51147 | 139.94908 | 5417 ft | 259 kts | 182° |
| 2026-04-30 09:48 | 35.49358 | 139.94530 | 6239 ft | 262 kts | 190° |
| 2026-04-30 09:48 | 35.47550 | 139.94022 | 7046 ft | 265 kts | 199° |
| 2026-04-30 09:49 | 35.46002 | 139.92734 | 7819 ft | 272 kts | 227° |
| 2026-04-30 09:49 | 35.45094 | 139.90688 | 8613 ft | 278 kts | 252° |
| 2026-04-30 09:49 | 35.44761 | 139.88309 | 9450 ft | 280 kts | 258° |
| 2026-04-30 09:49 | 35.44462 | 139.85922 | 10242 ft | 281 kts | 259° |
| 2026-04-30 09:50 | 35.44143 | 139.83510 | 10740 ft | 293 kts | 259° |
| 2026-04-30 09:50 | 35.43802 | 139.80978 | 11062 ft | 310 kts | 259° |
| 2026-04-30 09:50 | 35.43437 | 139.78290 | 11363 ft | 327 kts | 259° |
| 2026-04-30 09:50 | 35.43064 | 139.75442 | 11643 ft | 343 kts | 262° |
| 2026-04-30 09:51 | 35.43015 | 139.72461 | 12022 ft | 356 kts | 273° |
| 2026-04-30 09:51 | 35.43435 | 139.69440 | 12624 ft | 361 kts | 283° |
| 2026-04-30 09:51 | 35.44176 | 139.66438 | 13331 ft | 362 kts | 286° |
| 2026-04-30 09:51 | 35.44952 | 139.63510 | 13985 ft | 362 kts | 287° |
| 2026-04-30 09:52 | 35.45737 | 139.60559 | 14593 ft | 365 kts | 287° |
| 2026-04-30 09:52 | 35.46520 | 139.57588 | 15191 ft | 366 kts | 287° |
| 2026-04-30 09:52 | 35.47297 | 139.54613 | 15767 ft | 368 kts | 286° |
| 2026-04-30 09:52 | 35.47968 | 139.51596 | 16318 ft | 369 kts | 282° |
| 2026-04-30 09:53 | 35.48428 | 139.48424 | 16853 ft | 371 kts | 277° |
| 2026-04-30 09:53 | 35.48653 | 139.45230 | 17362 ft | 373 kts | 274° |
| 2026-04-30 09:53 | 35.48794 | 139.42049 | 17842 ft | 375 kts | 273° |
| 2026-04-30 09:53 | 35.48926 | 139.38786 | 18333 ft | 377 kts | 273° |
| 2026-04-30 09:54 | 35.49054 | 139.35602 | 18878 ft | 377 kts | 273° |
| 2026-04-30 09:54 | 35.49184 | 139.32385 | 19367 ft | 378 kts | 272° |
| 2026-04-30 09:54 | 35.49314 | 139.29167 | 19858 ft | 378 kts | 272° |
| 2026-04-30 09:54 | 35.49443 | 139.25922 | 20346 ft | 379 kts | 272° |
| 2026-04-30 09:55 | 35.49572 | 139.22717 | 20807 ft | 380 kts | 272° |
| 2026-04-30 09:55 | 35.49699 | 139.19473 | 21270 ft | 380 kts | 272° |
| 2026-04-30 09:55 | 35.49736 | 139.16222 | 21700 ft | 381 kts | 269° |
| 2026-04-30 09:55 | 35.49635 | 139.12953 | 22123 ft | 382 kts | 267° |
| 2026-04-30 09:56 | 35.49481 | 139.09689 | 22490 ft | 383 kts | 266° |
| 2026-04-30 09:56 | 35.49323 | 139.06407 | 22860 ft | 384 kts | 267° |
| 2026-04-30 09:56 | 35.49168 | 139.03181 | 23243 ft | 385 kts | 266° |
| 2026-04-30 09:56 | 35.49009 | 138.99878 | 23477 ft | 390 kts | 266° |
| 2026-04-30 09:57 | 35.48847 | 138.96523 | 23728 ft | 393 kts | 266° |
| 2026-04-30 09:57 | 35.48682 | 138.93167 | 24039 ft | 395 kts | 265° |
| 2026-04-30 09:57 | 35.48518 | 138.89827 | 24388 ft | 395 kts | 265° |
| 2026-04-30 09:57 | 35.48347 | 138.86459 | 24709 ft | 397 kts | 265° |
| 2026-04-30 09:58 | 35.48180 | 138.83087 | 25038 ft | 398 kts | 265° |
| 2026-04-30 09:58 | 35.48004 | 138.79660 | 25331 ft | 399 kts | 265° |
| 2026-04-30 09:58 | 35.47834 | 138.76294 | 25647 ft | 400 kts | 264° |
| 2026-04-30 09:58 | 35.47661 | 138.72891 | 25936 ft | 401 kts | 264° |
| 2026-04-30 09:59 | 35.47305 | 138.66011 | 26463 ft | 404 kts | 264° |
| 2026-04-30 09:59 | 35.46944 | 138.59142 | 26985 ft | 406 kts | 264° |
| 2026-04-30 10:00 | 35.46584 | 138.52289 | 27620 ft | 404 kts | 263° |
| 2026-04-30 10:00 | 35.46401 | 138.48813 | 28004 ft | 402 kts | 263° |
| 2026-04-30 10:01 | 35.46040 | 138.42064 | 28746 ft | 398 kts | 263° |
| 2026-04-30 10:01 | 35.45855 | 138.38699 | 29082 ft | 397 kts | 263° |
| 2026-04-30 10:01 | 35.45668 | 138.35290 | 29463 ft | 395 kts | 262° |
| 2026-04-30 10:02 | 35.45296 | 138.28569 | 30352 ft | 390 kts | 262° |
| 2026-04-30 10:02 | 35.45112 | 138.25250 | 30782 ft | 387 kts | 262° |
| 2026-04-30 10:02 | 35.44933 | 138.21974 | 31206 ft | 385 kts | 261° |
| 2026-04-30 10:02 | 35.44749 | 138.18681 | 31594 ft | 383 kts | 261° |
| 2026-04-30 10:03 | 35.44566 | 138.15451 | 31974 ft | 382 kts | 261° |
| 2026-04-30 10:03 | 35.44387 | 138.12241 | 32373 ft | 380 kts | 261° |
| 2026-04-30 10:03 | 35.44204 | 138.09021 | 32724 ft | 378 kts | 260° |
| 2026-04-30 10:03 | 35.44019 | 138.05801 | 33005 ft | 379 kts | 261° |
| 2026-04-30 10:04 | 35.43834 | 138.02603 | 33282 ft | 379 kts | 260° |
| 2026-04-30 10:04 | 35.43648 | 137.99376 | 33592 ft | 379 kts | 260° |
| 2026-04-30 10:04 | 35.43460 | 137.96147 | 33885 ft | 379 kts | 261° |
| 2026-04-30 10:04 | 35.43276 | 137.92970 | 34097 ft | 380 kts | 260° |
| 2026-04-30 10:05 | 35.43088 | 137.89731 | 34099 ft | 380 kts | 261° |
| 2026-04-30 10:05 | 35.42712 | 137.83307 | 34098 ft | 381 kts | 260° |
| 2026-04-30 10:06 | 35.42316 | 137.76836 | 34097 ft | 380 kts | 259° |
| 2026-04-30 10:06 | 35.41833 | 137.70403 | 34088 ft | 378 kts | 259° |
| 2026-04-30 10:07 | 35.41347 | 137.64027 | 34083 ft | 378 kts | 259° |
| 2026-04-30 10:07 | 35.40723 | 137.57665 | 34085 ft | 376 kts | 256° |
| 2026-04-30 10:08 | 35.39652 | 137.51411 | 34083 ft | 375 kts | 252° |
| 2026-04-30 10:08 | 35.38332 | 137.45264 | 34084 ft | 374 kts | 252° |
| 2026-04-30 10:09 | 35.37007 | 137.39127 | 34074 ft | 374 kts | 252° |
| 2026-04-30 10:09 | 35.35664 | 137.32965 | 34075 ft | 375 kts | 251° |
| 2026-04-30 10:10 | 35.34320 | 137.26810 | 34072 ft | 374 kts | 251° |
| 2026-04-30 10:10 | 35.32975 | 137.20671 | 34069 ft | 375 kts | 251° |
| 2026-04-30 10:11 | 35.31616 | 137.14508 | 34066 ft | 374 kts | 251° |
| 2026-04-30 10:11 | 35.30255 | 137.08339 | 34061 ft | 375 kts | 251° |
| 2026-04-30 10:12 | 35.28893 | 137.02185 | 34054 ft | 376 kts | 251° |
| 2026-04-30 10:12 | 35.27520 | 136.96019 | 34059 ft | 376 kts | 251° |
| 2026-04-30 10:13 | 35.26150 | 136.89865 | 34062 ft | 376 kts | 251° |
| 2026-04-30 10:13 | 35.24767 | 136.83708 | 34058 ft | 375 kts | 251° |
| 2026-04-30 10:14 | 35.23379 | 136.77536 | 34053 ft | 376 kts | 251° |
| 2026-04-30 10:14 | 35.21298 | 136.68297 | 34058 ft | 377 kts | 251° |
| 2026-04-30 10:15 | 35.19916 | 136.62158 | 34049 ft | 377 kts | 251° |
| 2026-04-30 10:15 | 35.18517 | 136.55995 | 34051 ft | 376 kts | 251° |
| 2026-04-30 10:16 | 35.17121 | 136.49837 | 34039 ft | 377 kts | 251° |
| 2026-04-30 10:17 | 35.15008 | 136.40562 | 34038 ft | 379 kts | 251° |
| 2026-04-30 10:17 | 35.12887 | 136.31277 | 34039 ft | 380 kts | 250° |
| 2026-04-30 10:18 | 35.11475 | 136.25128 | 34029 ft | 378 kts | 251° |
| 2026-04-30 10:19 | 35.09358 | 136.15819 | 34028 ft | 380 kts | 251° |
| 2026-04-30 10:19 | 35.07941 | 136.09625 | 34018 ft | 379 kts | 251° |
| 2026-04-30 10:20 | 35.06532 | 136.03461 | 34026 ft | 379 kts | 251° |
| 2026-04-30 10:20 | 35.04388 | 135.94185 | 34027 ft | 380 kts | 250° |
| 2026-04-30 10:21 | 35.02945 | 135.87991 | 34016 ft | 380 kts | 251° |
| 2026-04-30 10:21 | 35.01550 | 135.81753 | 34019 ft | 380 kts | 253° |
| 2026-04-30 10:22 | 35.00388 | 135.75508 | 34023 ft | 379 kts | 253° |
| 2026-04-30 10:22 | 34.99226 | 135.69273 | 34025 ft | 377 kts | 254° |
| 2026-04-30 10:23 | 34.98072 | 135.63049 | 34005 ft | 377 kts | 253° |
| 2026-04-30 10:23 | 34.96909 | 135.56828 | 34009 ft | 378 kts | 253° |
| 2026-04-30 10:24 | 34.95746 | 135.50604 | 34007 ft | 377 kts | 254° |
| 2026-04-30 10:24 | 34.94587 | 135.44411 | 34000 ft | 377 kts | 254° |
| 2026-04-30 10:25 | 34.93417 | 135.38190 | 33998 ft | 378 kts | 254° |
| 2026-04-30 10:25 | 34.92218 | 135.31943 | 33999 ft | 377 kts | 253° |
| 2026-04-30 10:26 | 34.91006 | 135.25761 | 33995 ft | 377 kts | 253° |
| 2026-04-30 10:26 | 34.89786 | 135.19580 | 33992 ft | 376 kts | 253° |
| 2026-04-30 10:27 | 34.88567 | 135.13376 | 33992 ft | 377 kts | 253° |
| 2026-04-30 10:27 | 34.87353 | 135.07211 | 33990 ft | 376 kts | 253° |
| 2026-04-30 10:28 | 34.86127 | 135.01038 | 33984 ft | 375 kts | 253° |
| 2026-04-30 10:28 | 34.84948 | 134.94849 | 33980 ft | 375 kts | 254° |
| 2026-04-30 10:29 | 34.83804 | 134.88718 | 33977 ft | 375 kts | 254° |
| 2026-04-30 10:29 | 34.82650 | 134.82556 | 33976 ft | 374 kts | 254° |
| 2026-04-30 10:30 | 34.81496 | 134.76393 | 33969 ft | 373 kts | 253° |
| 2026-04-30 10:30 | 34.80330 | 134.70235 | 33962 ft | 373 kts | 254° |
| 2026-04-30 10:31 | 34.79171 | 134.64102 | 33959 ft | 373 kts | 253° |
| 2026-04-30 10:31 | 34.77983 | 134.57958 | 33958 ft | 373 kts | 253° |
| 2026-04-30 10:32 | 34.76807 | 134.51859 | 33960 ft | 373 kts | 253° |
| 2026-04-30 10:32 | 34.75614 | 134.45725 | 33953 ft | 372 kts | 253° |
| 2026-04-30 10:33 | 34.74445 | 134.39615 | 33954 ft | 373 kts | 253° |
| 2026-04-30 10:33 | 34.73470 | 134.34517 | 33950 ft | 372 kts | 253° |
| 2026-04-30 10:34 | 34.72102 | 134.27357 | 33950 ft | 372 kts | 253° |
| 2026-04-30 10:34 | 34.70926 | 134.21245 | 33949 ft | 372 kts | 253° |
| 2026-04-30 10:35 | 34.69736 | 134.15051 | 33946 ft | 372 kts | 253° |
| 2026-04-30 10:35 | 34.68563 | 134.08952 | 33938 ft | 371 kts | 253° |
| 2026-04-30 10:36 | 34.67316 | 134.02885 | 33929 ft | 370 kts | 251° |
| 2026-04-30 10:36 | 34.65683 | 133.96968 | 33938 ft | 368 kts | 248° |
| 2026-04-30 10:37 | 34.63905 | 133.91148 | 33930 ft | 368 kts | 247° |
| 2026-04-30 10:37 | 34.62130 | 133.85349 | 33925 ft | 367 kts | 247° |
| 2026-04-30 10:38 | 34.60351 | 133.79579 | 33928 ft | 366 kts | 248° |
| 2026-04-30 10:38 | 34.58555 | 133.73766 | 33927 ft | 367 kts | 247° |
| 2026-04-30 10:39 | 34.56766 | 133.67992 | 33926 ft | 366 kts | 247° |
| 2026-04-30 10:39 | 34.54978 | 133.62254 | 33917 ft | 366 kts | 248° |
| 2026-04-30 10:40 | 34.53114 | 133.56497 | 33918 ft | 366 kts | 247° |
| 2026-04-30 10:40 | 34.51227 | 133.50778 | 33912 ft | 366 kts | 246° |
| 2026-04-30 10:41 | 34.49344 | 133.45056 | 33916 ft | 366 kts | 247° |
| 2026-04-30 10:41 | 34.47465 | 133.39359 | 33920 ft | 366 kts | 246° |
| 2026-04-30 10:42 | 34.45632 | 133.33604 | 33912 ft | 365 kts | 247° |
| 2026-04-30 10:42 | 34.43847 | 133.27855 | 33921 ft | 365 kts | 247° |
| 2026-04-30 10:43 | 34.42046 | 133.22099 | 33911 ft | 365 kts | 247° |
| 2026-04-30 10:43 | 34.40244 | 133.16367 | 33908 ft | 365 kts | 247° |
| 2026-04-30 10:44 | 34.38415 | 133.10623 | 33908 ft | 365 kts | 246° |
| 2026-04-30 10:44 | 34.36592 | 133.04916 | 33534 ft | 364 kts | 247° |
| 2026-04-30 10:45 | 34.35675 | 133.02043 | 33253 ft | 362 kts | 247° |
| 2026-04-30 10:45 | 34.34778 | 132.99220 | 32901 ft | 361 kts | 247° |
| 2026-04-30 10:45 | 34.33868 | 132.96374 | 32318 ft | 362 kts | 246° |
| 2026-04-30 10:45 | 34.32972 | 132.93561 | 31611 ft | 364 kts | 246° |
| 2026-04-30 10:46 | 34.32048 | 132.90677 | 30829 ft | 367 kts | 246° |
| 2026-04-30 10:46 | 34.31122 | 132.87793 | 30034 ft | 371 kts | 246° |
| 2026-04-30 10:46 | 34.30208 | 132.84904 | 29231 ft | 375 kts | 246° |
| 2026-04-30 10:46 | 34.29271 | 132.81934 | 28357 ft | 378 kts | 246° |
| 2026-04-30 10:47 | 34.28343 | 132.78995 | 27522 ft | 381 kts | 246° |
| 2026-04-30 10:47 | 34.27394 | 132.75990 | 26660 ft | 383 kts | 246° |
| 2026-04-30 10:47 | 34.26447 | 132.72995 | 25782 ft | 386 kts | 246° |
| 2026-04-30 10:47 | 34.25486 | 132.69951 | 25113 ft | 383 kts | 246° |
| 2026-04-30 10:48 | 34.24547 | 132.66980 | 24537 ft | 378 kts | 246° |
| 2026-04-30 10:48 | 34.23607 | 132.64003 | 23960 ft | 374 kts | 246° |
| 2026-04-30 10:48 | 34.22687 | 132.61108 | 23397 ft | 371 kts | 246° |
| 2026-04-30 10:48 | 34.21764 | 132.58203 | 22829 ft | 368 kts | 246° |
| 2026-04-30 10:49 | 34.20850 | 132.55328 | 22289 ft | 365 kts | 246° |
| 2026-04-30 10:49 | 34.19949 | 132.52495 | 21745 ft | 363 kts | 246° |
| 2026-04-30 10:49 | 34.19046 | 132.49646 | 21183 ft | 361 kts | 247° |
| 2026-04-30 10:49 | 34.18154 | 132.46837 | 20632 ft | 359 kts | 247° |
| 2026-04-30 10:50 | 34.17263 | 132.44028 | 20079 ft | 358 kts | 247° |
| 2026-04-30 10:50 | 34.16378 | 132.41237 | 19535 ft | 356 kts | 248° |
| 2026-04-30 10:50 | 34.15493 | 132.38454 | 18998 ft | 354 kts | 248° |
| 2026-04-30 10:50 | 34.14614 | 132.35690 | 18458 ft | 353 kts | 248° |
| 2026-04-30 10:51 | 34.13739 | 132.32933 | 17921 ft | 352 kts | 248° |
| 2026-04-30 10:51 | 34.12849 | 132.30133 | 17383 ft | 351 kts | 248° |
| 2026-04-30 10:51 | 34.11967 | 132.27362 | 16853 ft | 350 kts | 248° |
| 2026-04-30 10:51 | 34.11088 | 132.24603 | 16327 ft | 349 kts | 248° |
| 2026-04-30 10:52 | 34.10213 | 132.21860 | 15809 ft | 348 kts | 247° |
| 2026-04-30 10:52 | 34.09344 | 132.19145 | 15301 ft | 347 kts | 247° |
| 2026-04-30 10:52 | 34.08232 | 132.16496 | 14768 ft | 344 kts | 234° |
| 2026-04-30 10:52 | 34.06537 | 132.14391 | 14269 ft | 343 kts | 218° |
| 2026-04-30 10:53 | 34.04452 | 132.12950 | 13792 ft | 343 kts | 206° |
| 2026-04-30 10:53 | 34.02273 | 132.11797 | 13321 ft | 342 kts | 205° |
| 2026-04-30 10:53 | 34.00073 | 132.10646 | 12796 ft | 342 kts | 205° |
| 2026-04-30 10:53 | 33.97879 | 132.09505 | 12273 ft | 341 kts | 205° |
| 2026-04-30 10:54 | 33.95652 | 132.08348 | 11712 ft | 341 kts | 205° |
| 2026-04-30 10:54 | 33.93439 | 132.07198 | 11158 ft | 340 kts | 205° |
| 2026-04-30 10:54 | 33.91251 | 132.06061 | 10805 ft | 343 kts | 205° |
| 2026-04-30 10:54 | 33.89042 | 132.04916 | 10817 ft | 347 kts | 205° |
| 2026-04-30 10:55 | 33.86855 | 132.03787 | 10846 ft | 335 kts | 205° |
| 2026-04-30 10:55 | 33.84764 | 132.02708 | 10865 ft | 315 kts | 205° |
| 2026-04-30 10:55 | 33.82806 | 132.01697 | 10878 ft | 296 kts | 204° |
| 2026-04-30 10:55 | 33.80962 | 132.00746 | 10905 ft | 278 kts | 206° |
| 2026-04-30 10:56 | 33.79223 | 131.99849 | 10929 ft | 273 kts | 205° |
| 2026-04-30 10:56 | 33.77444 | 131.98996 | 11040 ft | 273 kts | 202° |
| 2026-04-30 10:56 | 33.75633 | 131.98267 | 11002 ft | 274 kts | 199° |
| 2026-04-30 10:56 | 33.73826 | 131.97624 | 10951 ft | 271 kts | 199° |
| 2026-04-30 10:57 | 33.72023 | 131.96980 | 10642 ft | 268 kts | 199° |
| 2026-04-30 10:57 | 33.70253 | 131.96349 | 10373 ft | 263 kts | 199° |
| 2026-04-30 10:57 | 33.68513 | 131.95732 | 10185 ft | 255 kts | 199° |
| 2026-04-30 10:57 | 33.66821 | 131.95132 | 10033 ft | 251 kts | 199° |
| 2026-04-30 10:58 | 33.65137 | 131.94534 | 9659 ft | 254 kts | 198° |
| 2026-04-30 10:58 | 33.63444 | 131.93932 | 9290 ft | 254 kts | 198° |
| 2026-04-30 10:58 | 33.61742 | 131.93327 | 8942 ft | 254 kts | 197° |
| 2026-04-30 10:58 | 33.60060 | 131.92734 | 8577 ft | 253 kts | 196° |
| 2026-04-30 10:59 | 33.58374 | 131.92137 | 8244 ft | 253 kts | 196° |
| 2026-04-30 10:59 | 33.56688 | 131.91539 | 7888 ft | 252 kts | 195° |
| 2026-04-30 10:59 | 33.55001 | 131.90941 | 7520 ft | 252 kts | 194° |
| 2026-04-30 10:59 | 33.53316 | 131.90347 | 7166 ft | 251 kts | 193° |
| 2026-04-30 11:00 | 33.51646 | 131.89760 | 6789 ft | 251 kts | 192° |
| 2026-04-30 11:00 | 33.49964 | 131.89168 | 6422 ft | 250 kts | 192° |
| 2026-04-30 11:00 | 33.48294 | 131.88580 | 6058 ft | 249 kts | 193° |
| 2026-04-30 11:00 | 33.46627 | 131.87996 | 5716 ft | 249 kts | 192° |
| 2026-04-30 11:01 | 33.44967 | 131.87413 | 5358 ft | 249 kts | 192° |
| 2026-04-30 11:01 | 33.43306 | 131.86833 | 4995 ft | 249 kts | 192° |
| 2026-04-30 11:01 | 33.41623 | 131.86240 | 4631 ft | 249 kts | 192° |
| 2026-04-30 11:01 | 33.39976 | 131.85660 | 4276 ft | 249 kts | 192° |
| 2026-04-30 11:02 | 33.38302 | 131.85074 | 3922 ft | 249 kts | 192° |
| 2026-04-30 11:02 | 33.36632 | 131.84488 | 3553 ft | 250 kts | 192° |
| 2026-04-30 11:02 | 33.34999 | 131.83910 | 3444 ft | 238 kts | 192° |
| 2026-04-30 11:02 | 33.33449 | 131.83360 | 3384 ft | 225 kts | 192° |
| 2026-04-30 11:03 | 33.31981 | 131.82838 | 3309 ft | 213 kts | 194° |
| 2026-04-30 11:03 | 33.30749 | 131.81906 | 3123 ft | 218 kts | 230° |
| 2026-04-30 11:03 | 33.30291 | 131.80148 | 3009 ft | 229 kts | 266° |
| 2026-04-30 11:04 | 33.30486 | 131.76434 | 2739 ft | 217 kts | 278° |
| 2026-04-30 11:04 | 33.31179 | 131.74895 | 2402 ft | 211 kts | 322° |
| 2026-04-30 11:04 | 33.32439 | 131.74139 | 2155 ft | 199 kts | 345° |
| 2026-04-30 11:04 | 33.33749 | 131.73750 | 1893 ft | 190 kts | 357° |
| 2026-04-30 11:05 | 33.35021 | 131.73613 | 1769 ft | 172 kts | 4° |
| 2026-04-30 11:05 | 33.36154 | 131.73584 | 1739 ft | 156 kts | 7° |
| 2026-04-30 11:05 | 33.37239 | 131.73598 | 1758 ft | 154 kts | 7° |
| 2026-04-30 11:05 | 33.38311 | 131.73616 | 1649 ft | 152 kts | 6° |
| 2026-04-30 11:06 | 33.39367 | 131.73628 | 1477 ft | 150 kts | 6° |
| 2026-04-30 11:06 | 33.40360 | 131.73636 | 1248 ft | 138 kts | 7° |
| 2026-04-30 11:06 | 33.41316 | 131.73644 | 1063 ft | 136 kts | 7° |
| 2026-04-30 11:06 | 33.42249 | 131.73654 | 892 ft | 135 kts | 6° |
| 2026-04-30 11:07 | 33.43194 | 131.73663 | 716 ft | 134 kts | 5° |
| 2026-04-30 11:07 | 33.44118 | 131.73673 | 540 ft | 133 kts | 5° |
| 2026-04-30 11:07 | 33.45045 | 131.73680 | 365 ft | 132 kts | 5° |
| 2026-04-30 11:07 | 33.45976 | 131.73692 | 179 ft | 132 kts | 4° |
| 2026-04-30 11:08 | 33.46888 | 131.73702 | 34 ft | 128 kts | 2° |
| 2026-04-30 11:08 | 33.47656 | 131.73709 | 28 ft | 87 kts | 1° |
| 2026-04-30 11:08 | 33.48101 | 131.73714 | 28 ft | 45 kts | 1° |
| 2026-04-30 11:08 | 33.48307 | 131.73715 | 28 ft | 17 kts | 0° |
| 2026-04-30 11:09 | 33.48392 | 131.73692 | 28 ft | 9 kts | 306° |
| 2026-04-30 11:09 | 33.48403 | 131.73618 | 28 ft | 9 kts | 270° |
| 2026-04-30 11:09 | 33.48391 | 131.73537 | 28 ft | 11 kts | 229° |
| 2026-04-30 11:09 | 33.48308 | 131.73515 | 28 ft | 14 kts | 180° |
| 2026-04-30 11:10 | 33.48190 | 131.73515 | 28 ft | 19 kts | 180° |
| 2026-04-30 11:10 | 33.48040 | 131.73514 | 28 ft | 23 kts | 180° |
| 2026-04-30 11:10 | 33.47874 | 131.73512 | 28 ft | 23 kts | 181° |
| 2026-04-30 11:10 | 33.47712 | 131.73511 | 28 ft | 19 kts | 180° |
| 2026-04-30 11:11 | 33.47647 | 131.73485 | 28 ft | 9 kts | 247° |
| 2026-04-30 11:11 | 33.47643 | 131.73413 | 28 ft | 7 kts | 271° |
| 2026-04-30 11:11 | 33.47643 | 131.73367 | 28 ft | 3 kts | 271° |
| 2026-04-30 11:11 | 33.47644 | 131.73352 | 28 ft | 0 kts | 271° |